Aérodrome :
LOGIN :

S'inscrire | Disclaimer

   EN    FR    IT 

 










Légende :    VFR   VFR Marginal   IFR   IFR Intensif   IFR Très Intensif
Visi : 
Plafond : 
>= 8 km
>= 3000ft
5 à 8 km
1000 à 3000 ft
1500m à 5 km
500 à 1000 ft
800 à 1500m
200 à 500 ft
< 800m
< 200 ft
Symboles :   Orages  Brouillard  Fortes neiges  Fortes précipitations  Vent > 20 kt
SIGMETs :   Divers  Orages  Givrage  Turbulence  Onde Orograph.  Cendres Volcan.







- Altitude de l'aérodrome : 154 ft
- Code IATA : SZZ


EPSC - Szczecin Goleniow

DERNIER METAR :
  • 221800Z 12013KT 8000 SCT014 M02/M04 Q1013

METARs EXPIRÉS :
  • 221730Z 12014KT 8000 BKN013 M02/M04 Q1013
  • 221700Z 12014KT 7000 BKN013 M01/M04 Q1013
  • 221630Z 13012KT 7000 NSC M01/M04 Q1012
  • 221600Z 12013KT 7000 FEW016 M01/M04 Q1012
  • 221530Z 12013KT 7000 FEW015 M01/M04 Q1012

TAF TAF EPSC
Valide du 22 à 18h jusqu'au 23 à 18h UTC


221730Z 2218/2318 13010KT 7000 BKN015
PROB40
TEMPO 2218/2222 4000 -SNRA BR BKN008
TEMPO 2222/2309 3000 BR
PROB40 2222/2308 BKN005
BECMG 2309/2312 19010KT
TEMPO 2313/2318 BKN012
Pas de NOTAMs connus pour ce terrain.



MET'MAP, la Météo Aéronautique d'un coup d'oeil ! - Copyright ORBIFLY Décembre 2007 - Disclaimer

ORBIFLY MET'MAP TEAM :

Programmation & Développement : Alexandra Zaïnal
Conception & Développement : Baudouin d'Aumeries
Co-Programmation & Développement : Marc-Olivier Méhu
Soutien technique & logistique : Manuel Goepfert

Contact : metmap@orbifly.com




SOURCES & CREDITS :

   NOAA